sensor_id;sensor_type;location;lat;lon;timestamp;pressure;altitude;pressure_sealevel;temperature;humidity
20889;BME280;10604;51.976;7.594;2023-10-31T00:00:32;98627.06;;;26.92;42.79
20889;BME280;10604;51.976;7.594;2023-10-31T00:02:57;98624.97;;;26.94;42.36
20889;BME280;10604;51.976;7.594;2023-10-31T00:05:22;98621.28;;;27.08;42.55
20889;BME280;10604;51.976;7.594;2023-10-31T00:07:48;98620.03;;;27.04;42.13
20889;BME280;10604;51.976;7.594;2023-10-31T00:10:13;98616.31;;;27.24;41.79
20889;BME280;10604;51.976;7.594;2023-10-31T00:12:38;98618.66;;;27.41;41.89
20889;BME280;10604;51.976;7.594;2023-10-31T00:15:04;98622.13;;;27.21;41.81
20889;BME280;10604;51.976;7.594;2023-10-31T00:17:30;98626.75;;;27.21;42.29
20889;BME280;10604;51.976;7.594;2023-10-31T00:19:55;98623.38;;;27.06;42.15
20889;BME280;10604;51.976;7.594;2023-10-31T00:22:21;98613.34;;;27.00;42.73
20889;BME280;10604;51.976;7.594;2023-10-31T00:24:47;98611.75;;;27.38;41.61
20889;BME280;10604;51.976;7.594;2023-10-31T00:27:12;98623.41;;;27.19;41.74
20889;BME280;10604;51.976;7.594;2023-10-31T00:29:37;98621.84;;;26.49;43.14
20889;BME280;10604;51.976;7.594;2023-10-31T00:32:02;98607.81;;;26.04;44.16
20889;BME280;10604;51.976;7.594;2023-10-31T00:34:28;98613.41;;;26.31;43.92
20889;BME280;10604;51.976;7.594;2023-10-31T00:36:53;98607.50;;;25.65;44.58
20889;BME280;10604;51.976;7.594;2023-10-31T00:39:18;98609.25;;;25.79;45.48
20889;BME280;10604;51.976;7.594;2023-10-31T00:41:44;98610.56;;;25.41;45.34
20889;BME280;10604;51.976;7.594;2023-10-31T00:44:12;98602.97;;;25.93;45.05
20889;BME280;10604;51.976;7.594;2023-10-31T00:46:37;98597.72;;;26.54;44.05
20889;BME280;10604;51.976;7.594;2023-10-31T00:49:03;98602.59;;;26.31;44.09
20889;BME280;10604;51.976;7.594;2023-10-31T00:51:28;98600.22;;;26.49;43.88
20889;BME280;10604;51.976;7.594;2023-10-31T00:53:53;98596.63;;;26.07;44.88
20889;BME280;10604;51.976;7.594;2023-10-31T00:56:18;98593.56;;;25.89;45.27
20889;BME280;10604;51.976;7.594;2023-10-31T00:58:44;98595.66;;;26.22;43.91
20889;BME280;10604;51.976;7.594;2023-10-31T01:01:09;98592.78;;;25.95;44.46
20889;BME280;10604;51.976;7.594;2023-10-31T01:03:34;98597.84;;;26.05;44.28
20889;BME280;10604;51.976;7.594;2023-10-31T01:05:59;98603.28;;;26.11;43.98
20889;BME280;10604;51.976;7.594;2023-10-31T01:08:25;98592.13;;;25.23;45.53
20889;BME280;10604;51.976;7.594;2023-10-31T01:10:50;98600.25;;;25.08;45.96
20889;BME280;10604;51.976;7.594;2023-10-31T01:13:15;98591.88;;;25.88;45.02
20889;BME280;10604;51.976;7.594;2023-10-31T01:15:40;98610.88;;;25.31;44.93
20889;BME280;10604;51.976;7.594;2023-10-31T01:18:05;98599.28;;;24.94;45.05
20889;BME280;10604;51.976;7.594;2023-10-31T01:20:31;98608.50;;;23.83;47.64
20889;BME280;10604;51.976;7.594;2023-10-31T01:22:56;98611.41;;;24.10;47.25
20889;BME280;10604;51.976;7.594;2023-10-31T01:25:21;98618.97;;;24.15;46.48
20889;BME280;10604;51.976;7.594;2023-10-31T01:27:47;98630.56;;;23.63;47.34
20889;BME280;10604;51.976;7.594;2023-10-31T01:30:12;98642.03;;;23.03;48.33
20889;BME280;10604;51.976;7.594;2023-10-31T01:32:37;98643.19;;;22.70;48.73
20889;BME280;10604;51.976;7.594;2023-10-31T01:35:03;98655.31;;;22.66;47.92
20889;BME280;10604;51.976;7.594;2023-10-31T01:37:29;98644.06;;;21.91;48.67
20889;BME280;10604;51.976;7.594;2023-10-31T01:39:54;98648.44;;;21.92;48.48
20889;BME280;10604;51.976;7.594;2023-10-31T01:42:19;98665.13;;;23.74;46.24
20889;BME280;10604;51.976;7.594;2023-10-31T01:44:44;98664.53;;;23.64;46.23
20889;BME280;10604;51.976;7.594;2023-10-31T01:47:10;98681.50;;;23.11;46.41
20889;BME280;10604;51.976;7.594;2023-10-31T01:49:36;98673.78;;;22.69;47.08
20889;BME280;10604;51.976;7.594;2023-10-31T01:52:02;98664.88;;;22.05;47.63
20889;BME280;10604;51.976;7.594;2023-10-31T01:54:27;98692.34;;;22.40;46.96
20889;BME280;10604;51.976;7.594;2023-10-31T01:56:54;98680.19;;;23.84;45.16
20889;BME280;10604;51.976;7.594;2023-10-31T01:59:22;98674.94;;;22.66;45.95
20889;BME280;10604;51.976;7.594;2023-10-31T02:01:48;98677.78;;;22.81;45.64
20889;BME280;10604;51.976;7.594;2023-10-31T02:04:14;98680.13;;;21.48;48.60
20889;BME280;10604;51.976;7.594;2023-10-31T02:06:39;98690.03;;;22.37;46.45
20889;BME280;10604;51.976;7.594;2023-10-31T02:09:05;98691.97;;;22.59;46.36
20889;BME280;10604;51.976;7.594;2023-10-31T02:11:30;98704.47;;;22.03;47.11
20889;BME280;10604;51.976;7.594;2023-10-31T02:13:55;98695.00;;;22.56;45.75
20889;BME280;10604;51.976;7.594;2023-10-31T02:16:20;98713.44;;;22.75;46.05
20889;BME280;10604;51.976;7.594;2023-10-31T02:18:46;98708.28;;;22.57;46.12
20889;BME280;10604;51.976;7.594;2023-10-31T02:21:11;98722.59;;;22.34;45.76
20889;BME280;10604;51.976;7.594;2023-10-31T02:23:36;98716.88;;;22.37;46.55
20889;BME280;10604;51.976;7.594;2023-10-31T02:26:02;98725.75;;;22.45;46.37
20889;BME280;10604;51.976;7.594;2023-10-31T02:28:28;98735.91;;;22.90;45.32
20889;BME280;10604;51.976;7.594;2023-10-31T02:30:53;98732.88;;;22.14;46.57
20889;BME280;10604;51.976;7.594;2023-10-31T02:33:20;98737.88;;;23.04;44.98
20889;BME280;10604;51.976;7.594;2023-10-31T02:35:45;98743.72;;;21.64;45.93
20889;BME280;10604;51.976;7.594;2023-10-31T02:38:10;98745.38;;;22.54;45.27
20889;BME280;10604;51.976;7.594;2023-10-31T02:40:36;98750.34;;;22.89;44.39
20889;BME280;10604;51.976;7.594;2023-10-31T02:43:01;98753.13;;;21.84;46.05
20889;BME280;10604;51.976;7.594;2023-10-31T02:45:27;98760.81;;;22.60;45.28
20889;BME280;10604;51.976;7.594;2023-10-31T02:47:52;98781.94;;;22.95;44.26
20889;BME280;10604;51.976;7.594;2023-10-31T02:50:18;98787.38;;;22.79;44.51
20889;BME280;10604;51.976;7.594;2023-10-31T02:52:43;98787.75;;;23.54;43.28
20889;BME280;10604;51.976;7.594;2023-10-31T02:55:08;98795.31;;;23.20;43.49
20889;BME280;10604;51.976;7.594;2023-10-31T02:57:34;98793.78;;;22.46;44.59
20889;BME280;10604;51.976;7.594;2023-10-31T02:59:59;98793.44;;;22.49;44.92
20889;BME280;10604;51.976;7.594;2023-10-31T03:02:24;98803.31;;;22.81;44.70
20889;BME280;10604;51.976;7.594;2023-10-31T03:04:49;98809.59;;;23.90;42.88
20889;BME280;10604;51.976;7.594;2023-10-31T03:07:15;98802.06;;;23.16;43.31
20889;BME280;10604;51.976;7.594;2023-10-31T03:09:40;98806.78;;;23.06;43.69
20889;BME280;10604;51.976;7.594;2023-10-31T03:12:06;98806.78;;;23.14;43.58
20889;BME280;10604;51.976;7.594;2023-10-31T03:14:31;98810.56;;;22.64;44.08
20889;BME280;10604;51.976;7.594;2023-10-31T03:16:56;98822.31;;;22.71;43.21
20889;BME280;10604;51.976;7.594;2023-10-31T03:19:21;98819.66;;;22.79;44.22
20889;BME280;10604;51.976;7.594;2023-10-31T03:21:47;98822.16;;;22.32;44.75
20889;BME280;10604;51.976;7.594;2023-10-31T03:24:12;98840.06;;;23.04;43.58
20889;BME280;10604;51.976;7.594;2023-10-31T03:26:37;98836.44;;;22.41;43.93
20889;BME280;10604;51.976;7.594;2023-10-31T03:29:03;98832.41;;;22.85;44.02
20889;BME280;10604;51.976;7.594;2023-10-31T03:31:28;98837.28;;;22.74;44.07
20889;BME280;10604;51.976;7.594;2023-10-31T03:33:53;98837.19;;;21.76;45.25
20889;BME280;10604;51.976;7.594;2023-10-31T03:36:19;98847.84;;;22.02;44.70
20889;BME280;10604;51.976;7.594;2023-10-31T03:38:45;98849.16;;;23.03;43.82
20889;BME280;10604;51.976;7.594;2023-10-31T03:41:10;98844.34;;;24.08;41.63
20889;BME280;10604;51.976;7.594;2023-10-31T03:43:36;98843.63;;;22.89;43.45
20889;BME280;10604;51.976;7.594;2023-10-31T03:46:01;98852.53;;;22.97;43.37
20889;BME280;10604;51.976;7.594;2023-10-31T03:48:26;98854.94;;;23.48;42.61
20889;BME280;10604;51.976;7.594;2023-10-31T03:50:52;98856.06;;;23.53;42.58
20889;BME280;10604;51.976;7.594;2023-10-31T03:53:17;98861.97;;;22.85;43.41
20889;BME280;10604;51.976;7.594;2023-10-31T03:55:42;98863.00;;;22.76;43.57
20889;BME280;10604;51.976;7.594;2023-10-31T03:58:07;98860.97;;;22.62;43.88
20889;BME280;10604;51.976;7.594;2023-10-31T04:00:33;98865.31;;;22.95;43.36
20889;BME280;10604;51.976;7.594;2023-10-31T04:02:58;98868.34;;;22.60;44.01
20889;BME280;10604;51.976;7.594;2023-10-31T04:05:23;98876.44;;;22.84;43.58
20889;BME280;10604;51.976;7.594;2023-10-31T04:07:48;98884.47;;;22.27;44.42
20889;BME280;10604;51.976;7.594;2023-10-31T04:10:14;98885.09;;;23.74;41.86
20889;BME280;10604;51.976;7.594;2023-10-31T04:12:40;98888.75;;;23.34;42.79
20889;BME280;10604;51.976;7.594;2023-10-31T04:15:05;98890.19;;;22.89;43.54
20889;BME280;10604;51.976;7.594;2023-10-31T04:17:31;98892.88;;;23.14;42.79
20889;BME280;10604;51.976;7.594;2023-10-31T04:19:56;98897.28;;;22.74;43.61
20889;BME280;10604;51.976;7.594;2023-10-31T04:22:21;98897.13;;;23.55;42.24
20889;BME280;10604;51.976;7.594;2023-10-31T04:24:47;98905.16;;;24.02;41.24
20889;BME280;10604;51.976;7.594;2023-10-31T04:27:12;98898.25;;;22.97;43.45
20889;BME280;10604;51.976;7.594;2023-10-31T04:29:37;98902.41;;;23.16;42.54
20889;BME280;10604;51.976;7.594;2023-10-31T04:32:02;98911.38;;;24.03;41.96
20889;BME280;10604;51.976;7.594;2023-10-31T04:34:28;98910.03;;;24.07;41.93
20889;BME280;10604;51.976;7.594;2023-10-31T04:36:53;98907.56;;;23.58;41.90
20889;BME280;10604;51.976;7.594;2023-10-31T04:39:18;98921.88;;;24.51;40.96
20889;BME280;10604;51.976;7.594;2023-10-31T04:41:44;98907.81;;;24.64;40.91
20889;BME280;10604;51.976;7.594;2023-10-31T04:44:09;98909.66;;;24.41;40.86
20889;BME280;10604;51.976;7.594;2023-10-31T04:46:34;98909.34;;;23.11;42.92
20889;BME280;10604;51.976;7.594;2023-10-31T04:48:59;98911.41;;;23.95;42.23
20889;BME280;10604;51.976;7.594;2023-10-31T04:51:25;98905.59;;;23.36;42.98
20889;BME280;10604;51.976;7.594;2023-10-31T04:53:50;98916.06;;;22.50;44.57
20889;BME280;10604;51.976;7.594;2023-10-31T04:56:15;98911.63;;;24.24;41.51
20889;BME280;10604;51.976;7.594;2023-10-31T04:58:41;98918.72;;;24.71;40.62
20889;BME280;10604;51.976;7.594;2023-10-31T05:01:13;98920.84;;;23.99;41.48
20889;BME280;10604;51.976;7.594;2023-10-31T05:03:38;98907.56;;;23.58;42.22
20889;BME280;10604;51.976;7.594;2023-10-31T05:06:04;98917.13;;;24.00;42.38
20889;BME280;10604;51.976;7.594;2023-10-31T05:08:29;98921.44;;;23.15;43.63
20889;BME280;10604;51.976;7.594;2023-10-31T05:10:55;98924.16;;;22.74;43.79
20889;BME280;10604;51.976;7.594;2023-10-31T05:13:20;98924.22;;;24.01;42.19
20889;BME280;10604;51.976;7.594;2023-10-31T05:15:45;98913.28;;;23.55;43.32
20889;BME280;10604;51.976;7.594;2023-10-31T05:18:11;98930.13;;;24.27;42.28
20889;BME280;10604;51.976;7.594;2023-10-31T05:20:36;98915.25;;;23.69;43.31
20889;BME280;10604;51.976;7.594;2023-10-31T05:23:01;98916.16;;;23.93;42.49
20889;BME280;10604;51.976;7.594;2023-10-31T05:25:26;98918.09;;;23.76;42.95
20889;BME280;10604;51.976;7.594;2023-10-31T05:27:52;98920.06;;;23.82;42.79
20889;BME280;10604;51.976;7.594;2023-10-31T05:30:17;98915.44;;;23.99;42.29
20889;BME280;10604;51.976;7.594;2023-10-31T05:32:42;98914.69;;;24.21;41.32
20889;BME280;10604;51.976;7.594;2023-10-31T05:35:08;98924.38;;;24.30;41.93
20889;BME280;10604;51.976;7.594;2023-10-31T05:37:33;98928.63;;;21.83;45.72
20889;BME280;10604;51.976;7.594;2023-10-31T05:39:59;98925.75;;;23.48;43.31
20889;BME280;10604;51.976;7.594;2023-10-31T05:42:25;98935.09;;;23.68;43.06
20889;BME280;10604;51.976;7.594;2023-10-31T05:44:52;98941.28;;;23.30;43.29
20889;BME280;10604;51.976;7.594;2023-10-31T05:47:17;98945.00;;;22.96;43.60
20889;BME280;10604;51.976;7.594;2023-10-31T05:49:43;98936.53;;;23.24;42.89
20889;BME280;10604;51.976;7.594;2023-10-31T05:52:08;98940.97;;;22.84;43.13
20889;BME280;10604;51.976;7.594;2023-10-31T05:54:34;98939.28;;;23.16;43.58
20889;BME280;10604;51.976;7.594;2023-10-31T05:56:59;98945.66;;;22.74;43.27
20889;BME280;10604;51.976;7.594;2023-10-31T05:59:24;98961.59;;;22.67;42.88
20889;BME280;10604;51.976;7.594;2023-10-31T06:01:50;98948.16;;;23.24;42.92
20889;BME280;10604;51.976;7.594;2023-10-31T06:04:15;98969.50;;;23.50;41.79
20889;BME280;10604;51.976;7.594;2023-10-31T06:06:40;98966.16;;;22.59;43.01
20889;BME280;10604;51.976;7.594;2023-10-31T06:09:06;98976.25;;;22.81;42.50
20889;BME280;10604;51.976;7.594;2023-10-31T06:11:31;98983.25;;;23.71;42.04
20889;BME280;10604;51.976;7.594;2023-10-31T06:13:57;98986.34;;;22.79;42.92
20889;BME280;10604;51.976;7.594;2023-10-31T06:16:24;99000.13;;;23.57;42.38
20889;BME280;10604;51.976;7.594;2023-10-31T06:18:49;99003.75;;;22.67;44.05
20889;BME280;10604;51.976;7.594;2023-10-31T06:21:14;99009.03;;;22.85;44.26
20889;BME280;10604;51.976;7.594;2023-10-31T06:23:39;99031.00;;;22.64;44.47
20889;BME280;10604;51.976;7.594;2023-10-31T06:26:05;99025.34;;;22.99;43.67
20889;BME280;10604;51.976;7.594;2023-10-31T06:28:30;99025.63;;;21.80;45.33
20889;BME280;10604;51.976;7.594;2023-10-31T06:30:57;99038.63;;;22.26;45.32
20889;BME280;10604;51.976;7.594;2023-10-31T06:33:22;99036.34;;;22.56;45.22
20889;BME280;10604;51.976;7.594;2023-10-31T06:35:48;99046.41;;;22.54;44.88
20889;BME280;10604;51.976;7.594;2023-10-31T06:38:13;99048.75;;;22.49;45.10
20889;BME280;10604;51.976;7.594;2023-10-31T06:40:38;99056.94;;;22.89;44.15
20889;BME280;10604;51.976;7.594;2023-10-31T06:43:03;99068.22;;;23.25;43.47
20889;BME280;10604;51.976;7.594;2023-10-31T06:45:28;99058.22;;;24.07;42.38
20889;BME280;10604;51.976;7.594;2023-10-31T06:47:54;99068.38;;;22.83;43.69
20889;BME280;10604;51.976;7.594;2023-10-31T06:50:19;99074.25;;;24.00;42.57
20889;BME280;10604;51.976;7.594;2023-10-31T06:52:44;99081.59;;;24.14;41.99
20889;BME280;10604;51.976;7.594;2023-10-31T06:55:09;99073.44;;;23.02;43.70
20889;BME280;10604;51.976;7.594;2023-10-31T06:57:35;99084.16;;;22.78;44.45
20889;BME280;10604;51.976;7.594;2023-10-31T07:00:00;99089.38;;;22.46;44.27
20889;BME280;10604;51.976;7.594;2023-10-31T07:02:25;99092.44;;;23.09;43.60
20889;BME280;10604;51.976;7.594;2023-10-31T07:04:51;99081.22;;;23.30;43.14
20889;BME280;10604;51.976;7.594;2023-10-31T07:07:16;99096.66;;;23.20;43.54
20889;BME280;10604;51.976;7.594;2023-10-31T07:09:41;99097.97;;;24.05;42.11
20889;BME280;10604;51.976;7.594;2023-10-31T07:12:06;99111.50;;;23.48;42.73
20889;BME280;10604;51.976;7.594;2023-10-31T07:14:32;99100.38;;;23.84;42.05
20889;BME280;10604;51.976;7.594;2023-10-31T07:16:57;99109.41;;;24.15;41.47
20889;BME280;10604;51.976;7.594;2023-10-31T07:19:22;99117.84;;;23.88;41.46
20889;BME280;10604;51.976;7.594;2023-10-31T07:21:47;99120.25;;;23.58;42.34
20889;BME280;10604;51.976;7.594;2023-10-31T07:24:12;99129.00;;;23.85;41.52
20889;BME280;10604;51.976;7.594;2023-10-31T07:26:38;99125.97;;;23.79;41.43
20889;BME280;10604;51.976;7.594;2023-10-31T07:29:03;99117.53;;;23.26;41.59
20889;BME280;10604;51.976;7.594;2023-10-31T07:31:28;99130.69;;;23.53;41.45
20889;BME280;10604;51.976;7.594;2023-10-31T07:33:53;99122.22;;;23.97;41.39
20889;BME280;10604;51.976;7.594;2023-10-31T07:36:18;99121.91;;;23.67;41.63
20889;BME280;10604;51.976;7.594;2023-10-31T07:38:44;99123.59;;;24.01;40.81
20889;BME280;10604;51.976;7.594;2023-10-31T07:41:09;99117.06;;;23.63;42.01
20889;BME280;10604;51.976;7.594;2023-10-31T07:43:34;99120.81;;;24.33;40.41
20889;BME280;10604;51.976;7.594;2023-10-31T07:45:59;99118.06;;;23.78;41.29
20889;BME280;10604;51.976;7.594;2023-10-31T07:48:25;99127.78;;;23.14;42.06
20889;BME280;10604;51.976;7.594;2023-10-31T07:50:50;99134.38;;;24.56;40.67
20889;BME280;10604;51.976;7.594;2023-10-31T07:53:15;99130.03;;;24.86;39.74
20889;BME280;10604;51.976;7.594;2023-10-31T07:55:42;99131.97;;;24.06;41.64
20889;BME280;10604;51.976;7.594;2023-10-31T07:58:07;99135.78;;;24.44;40.55
20889;BME280;10604;51.976;7.594;2023-10-31T08:00:34;99149.84;;;23.66;41.25
20889;BME280;10604;51.976;7.594;2023-10-31T08:03:00;99144.13;;;23.94;41.39
20889;BME280;10604;51.976;7.594;2023-10-31T08:05:25;99145.78;;;24.11;41.12
20889;BME280;10604;51.976;7.594;2023-10-31T08:07:50;99147.38;;;24.44;40.60
20889;BME280;10604;51.976;7.594;2023-10-31T08:10:15;99150.03;;;23.81;41.81
20889;BME280;10604;51.976;7.594;2023-10-31T08:12:41;99159.91;;;24.13;41.43
20889;BME280;10604;51.976;7.594;2023-10-31T08:15:06;99163.16;;;24.00;41.50
20889;BME280;10604;51.976;7.594;2023-10-31T08:17:31;99160.53;;;23.10;42.16
20889;BME280;10604;51.976;7.594;2023-10-31T08:19:56;99159.78;;;24.06;41.38
20889;BME280;10604;51.976;7.594;2023-10-31T08:22:22;99161.84;;;24.51;40.57
20889;BME280;10604;51.976;7.594;2023-10-31T08:24:47;99158.81;;;24.54;40.15
20889;BME280;10604;51.976;7.594;2023-10-31T08:27:13;99163.75;;;24.90;39.58
20889;BME280;10604;51.976;7.594;2023-10-31T08:29:38;99171.06;;;23.61;41.53
20889;BME280;10604;51.976;7.594;2023-10-31T08:32:03;99171.88;;;24.27;41.04
20889;BME280;10604;51.976;7.594;2023-10-31T08:34:29;99166.34;;;25.14;39.53
20889;BME280;10604;51.976;7.594;2023-10-31T08:36:54;99175.66;;;24.65;40.59
20889;BME280;10604;51.976;7.594;2023-10-31T08:39:21;99179.59;;;24.93;40.22
20889;BME280;10604;51.976;7.594;2023-10-31T08:41:50;99172.75;;;24.66;39.87
20889;BME280;10604;51.976;7.594;2023-10-31T08:44:16;99183.47;;;24.43;40.19
20889;BME280;10604;51.976;7.594;2023-10-31T08:46:41;99184.94;;;24.54;40.07
20889;BME280;10604;51.976;7.594;2023-10-31T08:49:06;99182.19;;;23.58;42.15
20889;BME280;10604;51.976;7.594;2023-10-31T08:51:31;99176.78;;;23.74;41.61
20889;BME280;10604;51.976;7.594;2023-10-31T08:53:57;99188.00;;;23.46;42.53
20889;BME280;10604;51.976;7.594;2023-10-31T08:56:23;99186.56;;;24.00;41.49
20889;BME280;10604;51.976;7.594;2023-10-31T08:58:49;99186.88;;;24.29;41.14
20889;BME280;10604;51.976;7.594;2023-10-31T09:01:14;99178.31;;;25.12;39.46
20889;BME280;10604;51.976;7.594;2023-10-31T09:03:39;99186.91;;;24.21;39.74
20889;BME280;10604;51.976;7.594;2023-10-31T09:06:05;99192.19;;;25.85;38.95
20889;BME280;10604;51.976;7.594;2023-10-31T09:08:30;99200.63;;;25.06;39.26
20889;BME280;10604;51.976;7.594;2023-10-31T09:10:56;99203.03;;;25.23;38.98
20889;BME280;10604;51.976;7.594;2023-10-31T09:13:21;99198.94;;;25.35;38.46
20889;BME280;10604;51.976;7.594;2023-10-31T09:15:46;99210.78;;;23.75;40.71
20889;BME280;10604;51.976;7.594;2023-10-31T09:18:12;99214.97;;;25.06;39.16
20889;BME280;10604;51.976;7.594;2023-10-31T09:20:38;99215.97;;;25.05;39.56
20889;BME280;10604;51.976;7.594;2023-10-31T09:23:03;99228.78;;;25.03;39.71
20889;BME280;10604;51.976;7.594;2023-10-31T09:25:28;99233.28;;;25.19;38.96
20889;BME280;10604;51.976;7.594;2023-10-31T09:27:55;99234.28;;;25.49;38.21
20889;BME280;10604;51.976;7.594;2023-10-31T09:30:20;99237.94;;;24.86;39.46
20889;BME280;10604;51.976;7.594;2023-10-31T09:32:45;99247.91;;;24.85;39.36
20889;BME280;10604;51.976;7.594;2023-10-31T09:35:12;99242.94;;;25.13;39.44
20889;BME280;10604;51.976;7.594;2023-10-31T09:37:38;99254.50;;;24.75;39.95
20889;BME280;10604;51.976;7.594;2023-10-31T09:40:04;99243.94;;;25.12;39.52
20889;BME280;10604;51.976;7.594;2023-10-31T09:42:29;99253.94;;;25.88;38.26
20889;BME280;10604;51.976;7.594;2023-10-31T09:44:54;99255.03;;;24.70;39.45
20889;BME280;10604;51.976;7.594;2023-10-31T09:47:20;99268.03;;;24.10;40.15
20889;BME280;10604;51.976;7.594;2023-10-31T09:49:45;99254.28;;;25.93;38.71
20889;BME280;10604;51.976;7.594;2023-10-31T09:52:11;99265.88;;;26.17;38.32
20889;BME280;10604;51.976;7.594;2023-10-31T09:54:36;99270.91;;;25.20;39.90
20889;BME280;10604;51.976;7.594;2023-10-31T09:57:03;99275.56;;;25.34;38.61
20889;BME280;10604;51.976;7.594;2023-10-31T09:59:28;99286.13;;;25.13;39.90
20889;BME280;10604;51.976;7.594;2023-10-31T10:01:53;99282.53;;;24.01;40.69
20889;BME280;10604;51.976;7.594;2023-10-31T10:04:19;99290.44;;;25.92;38.97
20889;BME280;10604;51.976;7.594;2023-10-31T10:07:18;99296.78;;;25.38;39.45
20889;BME280;10604;51.976;7.594;2023-10-31T10:09:37;99300.66;;;25.04;38.70
20889;BME280;10604;51.976;7.594;2023-10-31T10:12:02;99303.88;;;26.00;38.12
20889;BME280;10604;51.976;7.594;2023-10-31T10:14:29;99314.63;;;25.86;38.23
20889;BME280;10604;51.976;7.594;2023-10-31T10:16:56;99308.63;;;24.73;39.47
20889;BME280;10604;51.976;7.594;2023-10-31T10:19:22;99307.81;;;24.56;39.82
20889;BME280;10604;51.976;7.594;2023-10-31T10:24:14;99312.00;;;25.30;39.02
20889;BME280;10604;51.976;7.594;2023-10-31T10:26:39;99316.13;;;26.11;37.92
20889;BME280;10604;51.976;7.594;2023-10-31T10:29:04;99318.66;;;26.12;38.11
20889;BME280;10604;51.976;7.594;2023-10-31T10:31:29;99325.09;;;25.03;38.55
20889;BME280;10604;51.976;7.594;2023-10-31T10:33:54;99336.41;;;25.84;38.40
20889;BME280;10604;51.976;7.594;2023-10-31T10:36:20;99325.63;;;25.84;38.34
20889;BME280;10604;51.976;7.594;2023-10-31T10:38:46;99332.56;;;25.40;38.85
20889;BME280;10604;51.976;7.594;2023-10-31T10:41:13;99337.72;;;25.10;39.06
20889;BME280;10604;51.976;7.594;2023-10-31T10:43:39;99331.84;;;25.46;38.55
20889;BME280;10604;51.976;7.594;2023-10-31T10:46:05;99333.84;;;26.13;38.24
20889;BME280;10604;51.976;7.594;2023-10-31T10:48:32;99342.34;;;24.77;39.53
20889;BME280;10604;51.976;7.594;2023-10-31T10:51:05;99339.25;;;26.13;38.47
20889;BME280;10604;51.976;7.594;2023-10-31T10:53:36;99351.19;;;26.65;37.51
20889;BME280;10604;51.976;7.594;2023-10-31T10:56:08;99349.63;;;24.36;39.95
20889;BME280;10604;51.976;7.594;2023-10-31T10:58:36;99350.59;;;26.09;38.53
20889;BME280;10604;51.976;7.594;2023-10-31T11:01:06;99356.31;;;25.60;38.98
20889;BME280;10604;51.976;7.594;2023-10-31T11:03:32;99368.88;;;26.75;37.88
20889;BME280;10604;51.976;7.594;2023-10-31T11:05:58;99364.84;;;26.34;37.77
20889;BME280;10604;51.976;7.594;2023-10-31T11:08:24;99374.72;;;27.02;37.38
20889;BME280;10604;51.976;7.594;2023-10-31T11:10:52;99372.03;;;26.64;37.26
20889;BME280;10604;51.976;7.594;2023-10-31T11:13:18;99365.50;;;26.73;37.60
20889;BME280;10604;51.976;7.594;2023-10-31T11:15:44;99375.66;;;27.09;37.14
20889;BME280;10604;51.976;7.594;2023-10-31T11:18:11;99371.09;;;26.86;37.10
20889;BME280;10604;51.976;7.594;2023-10-31T11:20:36;99374.38;;;26.22;37.40
20889;BME280;10604;51.976;7.594;2023-10-31T11:23:02;99374.97;;;26.55;37.99
20889;BME280;10604;51.976;7.594;2023-10-31T11:25:31;99378.13;;;26.58;38.14
20889;BME280;10604;51.976;7.594;2023-10-31T11:27:57;99377.44;;;26.64;37.98
20889;BME280;10604;51.976;7.594;2023-10-31T11:30:29;99387.06;;;26.81;37.12
20889;BME280;10604;51.976;7.594;2023-10-31T11:32:55;99379.81;;;26.59;37.65
20889;BME280;10604;51.976;7.594;2023-10-31T11:35:22;99387.81;;;27.13;37.11
20889;BME280;10604;51.976;7.594;2023-10-31T11:40:28;99377.19;;;26.51;37.48
20889;BME280;10604;51.976;7.594;2023-10-31T11:42:56;99388.88;;;26.29;37.71
20889;BME280;10604;51.976;7.594;2023-10-31T11:45:26;99391.31;;;25.29;39.86
20889;BME280;10604;51.976;7.594;2023-10-31T11:47:52;99391.59;;;25.59;39.59
20889;BME280;10604;51.976;7.594;2023-10-31T11:50:17;99392.84;;;26.41;38.64
20889;BME280;10604;51.976;7.594;2023-10-31T11:52:43;99389.31;;;26.78;37.87
20889;BME280;10604;51.976;7.594;2023-10-31T11:55:09;99391.75;;;26.50;37.99
20889;BME280;10604;51.976;7.594;2023-10-31T11:57:35;99397.94;;;26.05;39.45
20889;BME280;10604;51.976;7.594;2023-10-31T12:00:00;99401.06;;;26.17;38.88
20889;BME280;10604;51.976;7.594;2023-10-31T12:02:25;99386.00;;;25.13;39.97
20889;BME280;10604;51.976;7.594;2023-10-31T12:04:51;99398.63;;;25.76;39.26
20889;BME280;10604;51.976;7.594;2023-10-31T12:07:18;99406.41;;;26.02;39.24
20889;BME280;10604;51.976;7.594;2023-10-31T12:09:46;99409.84;;;26.19;38.79
20889;BME280;10604;51.976;7.594;2023-10-31T12:12:12;99414.81;;;25.76;39.40
20889;BME280;10604;51.976;7.594;2023-10-31T12:14:37;99420.28;;;26.52;39.01
20889;BME280;10604;51.976;7.594;2023-10-31T12:17:07;99431.88;;;25.21;40.29
20889;BME280;10604;51.976;7.594;2023-10-31T12:19:34;99434.19;;;25.88;39.83
20889;BME280;10604;51.976;7.594;2023-10-31T12:21:59;99438.25;;;25.28;40.56
20889;BME280;10604;51.976;7.594;2023-10-31T12:24:26;99443.91;;;25.58;40.50
20889;BME280;10604;51.976;7.594;2023-10-31T12:26:52;99448.22;;;25.83;39.91
20889;BME280;10604;51.976;7.594;2023-10-31T12:29:18;99451.06;;;25.43;41.00
20889;BME280;10604;51.976;7.594;2023-10-31T12:31:47;99450.66;;;26.63;38.78
20889;BME280;10604;51.976;7.594;2023-10-31T12:34:16;99441.13;;;26.21;39.26
20889;BME280;10604;51.976;7.594;2023-10-31T12:36:42;99450.00;;;25.52;40.18
20889;BME280;10604;51.976;7.594;2023-10-31T12:39:09;99444.63;;;25.44;40.39
20889;BME280;10604;51.976;7.594;2023-10-31T12:41:34;99447.06;;;26.70;39.09
20889;BME280;10604;51.976;7.594;2023-10-31T12:44:00;99443.56;;;26.84;38.67
20889;BME280;10604;51.976;7.594;2023-10-31T12:46:29;99443.19;;;26.87;39.12
20889;BME280;10604;51.976;7.594;2023-10-31T12:48:56;99448.63;;;26.42;39.35
20889;BME280;10604;51.976;7.594;2023-10-31T12:51:21;99436.66;;;26.59;38.91
20889;BME280;10604;51.976;7.594;2023-10-31T12:53:49;99443.72;;;25.67;39.83
20889;BME280;10604;51.976;7.594;2023-10-31T12:58:59;99435.38;;;26.16;39.90